Aeroporto :
LOGIN :

Iscrizione | Disclaimer

   EN    FR    IT 

 










Sommario :    VFR   VFR Marginale   IFR   IFR Intensivo   IFR Molto Intensivo
Visibilità : 
Base nubi : 
>= 8 km
>= 3000ft
5 / 8 km
1000 / 3000 ft
1500m / 5 km
500 / 1000 ft
800 / 1500m
200 / 500 ft
< 800m
< 200 ft
Simboli :   Temporali  Nebbia  Neve Forte  Precipitazioni Forti  Vento > 20 kt
SIGMETs :   Varie  Temporali  Ghiacco  Turbolenza  Onda orograficha  Ceneri Vulcaniche






- Altitudine del aeroporto : 242 ft
- Codice IATA : DUB


EIDW - Dublin

ULTIMO METAR :
  • 220500Z 10006KT 9999 -RA SCT009 BKN016 06/06 Q0992 NOSIG

METARs OBSOLETI :
  • 220430Z 09010KT 8000 -RA FEW010 BKN012 BKN014 06/06 Q0992 NOSIG
  • 220400Z 09010KT 8000 -RA BKN012 BKN015 06/06 Q0992 NOSIG
  • 220330Z 09010KT 8000 -RA BKN011 BKN015 06/05 Q0992 NOSIG
  • 220300Z 10011KT 6000 -RA FEW007 SCT009 BKN014 06/06 Q0993 NOSIG
  • 220230Z 10010KT 8000 -RA FEW006 BKN009 BKN016 06/06 Q0993 NOSIG

TAF TAF EIDW
Valido dal 22 a 00 ore il 23 a 00 ore UTC


212300Z 2200/2224 11011KT 9999 -RA SCT014 BKN018
TEMPO 2200/2214 6000 BKN014
PROB30
TEMPO 2200/2209 3000 RA BKN007
TEMPO 2214/2224 4000 RA BKN012 SCT018CB
PROB30
TEMPO 2220/2224 2500 +RA BKN007
BECMG 2222/2224 09006KT



MetMap, La meteo Aeronautica in un colpo d'occhio ! - Copyright ORBIFLY Dicembre 2007 - Disclaimer

ORBIFLY MET'MAP TEAM :

Programmazione e sviluppo : Alexandra Zaïnal
Concezione e sviluppo : Baudouin d'Aumeries
Co-Programmazione e sviluppo : Marc-Olivier Méhu
Supporto tecnico e logistico : Manuel Goepfert
Aiuto per la traduzione : Arnaldo La Scala

Contatto : metmap@orbifly.com




FONTI E CREDITI :

   NOAA